Time;durP1;ratioP1;P1;durP2;ratioP2;P2;SDS_P1;SDS_P2;PMS_P1;PMS_P2;Temp;Humidity;BMP_temperature;BMP_pressure;BME280_temperature;BME280_humidity;BME280_pressure;Samples;Min_cycle;Max_cycle;Signal;HPM_P1;HPM_P2
2020/12/02 00:01:33;;;;;;;0.32;0.32;;;14.70;84.30;;;;;;4230502;28;20263;-40
2020/12/02 00:03:59;;;;;;;0.00;0.00;;;14.70;84.30;;;;;;4231064;28;20069;-40
2020/12/02 00:06:21;;;;;;;0.15;0.15;;;14.70;84.40;;;;;;4231652;28;20055;-40
2020/12/02 00:08:47;;;;;;;2.40;1.25;;;14.70;84.50;;;;;;4231695;28;20056;-40
2020/12/02 00:11:10;;;;;;;0.00;0.00;;;14.70;84.70;;;;;;4231060;28;20459;-40
2020/12/02 00:13:36;;;;;;;1.30;1.20;;;14.70;84.70;;;;;;4231029;28;20062;-40
2020/12/02 00:15:58;;;;;;;0.75;0.75;;;14.70;84.60;;;;;;4231138;28;20048;-40
2020/12/02 00:18:20;;;;;;;0.08;0.08;;;14.70;85.00;;;;;;4230232;28;20154;-39
2020/12/02 00:20:41;;;;;;;;;;;14.60;84.60;;;;;;4231722;28;20109;-40
2020/12/02 00:23:02;;;;;;;0.28;0.28;;;14.60;84.90;;;;;;4231617;28;19976;-40
2020/12/02 00:25:23;;;;;;;0.40;0.40;;;14.60;84.90;;;;;;4231134;28;20126;-40
2020/12/02 00:27:44;;;;;;;2.72;0.52;;;14.60;85.20;;;;;;4231517;28;20136;-39
2020/12/02 00:30:08;;;;;;;0.10;0.10;;;14.60;85.70;;;;;;4230958;28;20051;-40
2020/12/02 00:32:32;;;;;;;0.75;0.73;;;14.50;86.50;;;;;;4231138;28;20486;-40
2020/12/02 00:34:53;;;;;;;0.10;0.10;;;14.60;85.60;;;;;;4230419;28;20050;-40
2020/12/02 00:37:14;;;;;;;0.20;0.20;;;14.60;85.80;;;;;;4230623;28;20074;-42
2020/12/02 00:39:35;;;;;;;0.10;0.10;;;14.60;85.90;;;;;;4230541;28;20151;-40
2020/12/02 00:41:55;;;;;;;0.52;0.52;;;14.50;85.80;;;;;;4230499;28;20047;-40
2020/12/02 00:44:17;;;;;;;0.00;0.00;;;14.50;85.80;;;;;;4213705;28;20426;-44
2020/12/02 00:46:40;;;;;;;0.08;0.08;;;14.50;85.90;;;;;;4213719;28;20052;-40
2020/12/02 00:49:01;;;;;;;0.08;0.08;;;14.50;85.90;;;;;;4214023;28;20480;-40
2020/12/02 00:51:23;;;;;;;0.88;0.88;;;14.50;86.00;;;;;;4214820;28;20518;-40
2020/12/02 00:53:47;;;;;;;1.45;1.35;;;14.50;86.20;;;;;;4228020;28;20047;-40
2020/12/02 00:56:11;;;;;;;0.17;0.17;;;14.50;86.20;;;;;;4229894;28;20461;-40
2020/12/02 00:58:44;;;;;;;0.25;0.22;;;14.50;86.20;;;;;;4214748;28;20414;-40
2020/12/02 01:01:10;;;;;;;0.73;0.73;;;14.50;86.20;;;;;;4230142;28;20078;-40
2020/12/02 01:03:34;;;;;;;0.00;0.00;;;14.50;86.30;;;;;;4229855;28;20058;-40
2020/12/02 01:05:57;;;;;;;1.38;0.47;;;14.40;86.40;;;;;;4230116;28;20056;-40
2020/12/02 01:08:24;;;;;;;0.98;0.98;;;14.40;86.30;;;;;;4230023;28;20054;-44
2020/12/02 01:10:46;;;;;;;0.38;0.38;;;14.40;86.40;;;;;;4230045;28;20043;-42
2020/12/02 01:13:07;;;;;;;0.57;0.57;;;14.40;86.40;;;;;;4229840;28;20062;-39
2020/12/02 01:15:28;;;;;;;0.50;0.50;;;14.40;86.40;;;;;;4230596;28;20059;-41
2020/12/02 01:18:08;;;;;;;0.63;0.63;;;14.40;86.50;;;;;;4230108;28;20502;-40
2020/12/02 01:20:30;;;;;;;10.85;1.45;;;14.40;86.70;;;;;;4229659;28;20422;-40
2020/12/02 01:22:52;;;;;;;0.00;0.00;;;14.40;86.70;;;;;;4229849;28;20058;-40
2020/12/02 01:25:17;;;;;;;7.28;2.28;;;14.40;87.60;;;;;;4229847;28;20054;-40
2020/12/02 01:27:45;;;;;;;0.10;0.10;;;14.40;86.80;;;;;;4230067;28;20138;-40
2020/12/02 01:30:07;;;;;;;0.52;0.52;;;14.40;86.80;;;;;;4228763;28;20051;-40
2020/12/02 01:32:27;;;;;;;1.10;1.10;;;14.40;86.80;;;;;;4229601;28;20448;-40
2020/12/02 01:34:51;;;;;;;0.32;0.32;;;14.40;86.90;;;;;;4229558;28;20068;-40
2020/12/02 01:37:29;;;;;;;1.35;0.63;;;14.40;86.90;;;;;;4229805;28;20124;-40
2020/12/02 01:39:56;;;;;;;1.05;1.05;;;14.40;87.00;;;;;;4229692;28;20555;-40
2020/12/02 01:42:18;;;;;;;0.45;0.45;;;14.40;87.00;;;;;;4229103;28;20144;-40
2020/12/02 01:44:39;;;;;;;0.38;0.38;;;14.40;87.00;;;;;;4229127;28;20118;-40
2020/12/02 01:47:09;;;;;;;4.85;0.90;;;14.40;87.00;;;;;;4230067;28;20060;-40
2020/12/02 01:49:35;;;;;;;0.30;0.30;;;14.40;86.90;;;;;;4229922;28;20059;-40
2020/12/02 01:52:19;;;;;;;0.63;0.63;;;14.40;87.00;;;;;;4229939;28;20050;-40
2020/12/02 01:54:46;;;;;;;1.25;1.25;;;14.30;86.50;;;;;;4229696;28;20055;-40
2020/12/02 01:57:16;;;;;;;0.30;0.30;;;14.50;86.80;;;;;;4229463;28;20058;-40
2020/12/02 01:59:50;;;;;;;0.20;0.20;;;14.60;86.00;;;;;;4229564;28;20054;-40
2020/12/02 02:02:17;;;;;;;0.22;0.22;;;14.80;85.30;;;;;;4229467;28;20841;-40
2020/12/02 02:04:45;;;;;;;0.20;0.20;;;14.90;84.20;;;;;;4228999;28;20054;-40
2020/12/02 02:07:11;;;;;;;0.25;0.25;;;14.90;84.10;;;;;;4229071;28;20051;-39
2020/12/02 02:09:36;;;;;;;0.80;0.80;;;14.90;84.10;;;;;;4229443;28;20502;-39
2020/12/02 02:12:20;;;;;;;0.10;0.10;;;15.00;84.20;;;;;;4229757;28;20104;-39
2020/12/02 02:14:49;;;;;;;0.68;0.68;;;15.00;83.50;;;;;;4228795;28;20051;-39
2020/12/02 02:17:13;;;;;;;0.10;0.10;;;14.90;83.60;;;;;;4229219;28;20051;-40
2020/12/02 02:19:34;;;;;;;0.10;0.10;;;14.90;83.80;;;;;;4228991;28;20066;-40
2020/12/02 02:21:58;;;;;;;0.20;0.20;;;14.90;83.80;;;;;;4229222;28;20051;-40
2020/12/02 02:24:18;;;;;;;0.13;0.13;;;14.90;83.60;;;;;;4229034;28;20058;-40
2020/12/02 02:26:43;;;;;;;0.00;0.00;;;14.80;83.80;;;;;;4228761;28;20051;-40
2020/12/02 02:29:11;;;;;;;0.38;0.38;;;14.80;84.10;;;;;;4229491;28;20063;-40
2020/12/02 02:31:43;;;;;;;0.22;0.20;;;14.80;84.30;;;;;;4229372;28;20062;-40
2020/12/02 02:34:04;;;;;;;3.90;1.98;;;14.80;84.40;;;;;;4229123;28;20056;-40
2020/12/02 02:36:28;;;;;;;0.00;0.00;;;14.70;84.50;;;;;;4228970;28;20128;-40
2020/12/02 02:38:49;;;;;;;0.28;0.28;;;14.60;84.60;;;;;;4229040;28;20429;-40
2020/12/02 02:41:12;;;;;;;0.20;0.20;;;14.60;85.00;;;;;;4228255;28;20055;-40
2020/12/02 02:43:34;;;;;;;0.32;0.32;;;14.70;84.90;;;;;;4228661;28;20043;-40
2020/12/02 02:45:54;;;;;;;0.55;0.55;;;14.80;84.50;;;;;;4228998;28;20052;-40
2020/12/02 02:48:15;;;;;;;0.00;0.00;;;14.90;84.30;;;;;;4228864;28;20055;-40
2020/12/02 02:50:37;;;;;;;5.85;1.45;;;15.00;84.00;;;;;;4228054;28;20063;-40
2020/12/02 02:52:58;;;;;;;4.82;0.73;;;15.00;83.70;;;;;;4228849;28;20510;-40
2020/12/02 02:55:23;;;;;;;0.55;0.55;;;15.00;83.80;;;;;;4228824;28;20142;-40
2020/12/02 02:57:47;;;;;;;1.45;1.40;;;14.90;84.70;;;;;;4228560;28;20053;-42
2020/12/02 03:00:13;;;;;;;0.38;0.38;;;14.90;83.70;;;;;;4229162;28;20538;-40
2020/12/02 03:02:34;;;;;;;0.90;0.90;;;15.00;83.90;;;;;;4212589;28;20131;-41
2020/12/02 03:04:55;;;;;;;0.77;0.77;;;15.10;83.40;;;;;;4223592;28;20062;-40
2020/12/02 03:07:18;;;;;;;0.55;0.55;;;15.20;82.90;;;;;;4228928;28;20139;-40
2020/12/02 03:09:39;;;;;;;2.53;2.42;;;15.20;82.60;;;;;;4229012;28;20052;-40
2020/12/02 03:12:00;;;;;;;1.75;1.75;;;15.20;82.10;;;;;;4228476;28;20058;-40
2020/12/02 03:14:22;;;;;;;17.00;1.52;;;15.20;82.10;;;;;;4228745;28;20497;-40
2020/12/02 03:16:45;;;;;;;;;;;15.20;82.10;;;;;;4229152;28;20079;-40
2020/12/02 03:19:13;;;;;;;0.60;0.60;;;15.30;82.00;;;;;;4212426;28;20653;-40
2020/12/02 03:21:35;;;;;;;0.93;0.88;;;15.30;81.90;;;;;;4228560;28;20054;-40
2020/12/02 03:23:56;;;;;;;0.38;0.38;;;15.30;82.10;;;;;;4229197;28;20058;-39
2020/12/02 03:26:17;;;;;;;0.90;0.90;;;15.30;82.20;;;;;;4229237;28;20129;-40
2020/12/02 03:28:38;;;;;;;0.45;0.45;;;15.20;82.30;;;;;;4228344;28;20063;-40
2020/12/02 03:31:00;;;;;;;;;;;15.20;82.50;;;;;;4228885;28;20509;-40
2020/12/02 03:33:23;;;;;;;2.20;1.92;;;15.20;82.50;;;;;;4228558;28;20302;-40
2020/12/02 03:35:44;;;;;;;2.08;1.88;;;15.20;82.30;;;;;;4228412;28;20429;-40
2020/12/02 03:38:05;;;;;;;3.10;0.80;;;15.30;82.20;;;;;;4228679;28;20051;-40
2020/12/02 03:40:28;;;;;;;0.20;0.20;;;15.40;82.00;;;;;;4214847;28;20070;-40
2020/12/02 03:42:50;;;;;;;0.00;0.00;;;15.40;81.90;;;;;;4211827;28;20075;-41
2020/12/02 03:45:11;;;;;;;0.47;0.47;;;15.50;82.20;;;;;;4211801;28;20052;-41
2020/12/02 03:47:32;;;;;;;1.25;1.17;;;15.60;81.30;;;;;;4212210;28;20052;-42
2020/12/02 03:49:54;;;;;;;0.90;0.90;;;15.60;80.90;;;;;;4225673;28;20056;-41
2020/12/02 03:52:14;;;;;;;;;;;15.60;80.60;;;;;;4229006;28;20082;-41
2020/12/02 03:54:35;;;;;;;1.40;1.30;;;15.70;80.40;;;;;;4231248;28;19949;-42
2020/12/02 03:56:56;;;;;;;0.10;0.10;;;15.80;80.20;;;;;;4231536;28;20777;-44
2020/12/02 03:59:17;;;;;;;1.10;1.10;;;15.80;79.70;;;;;;4231152;28;20126;-41
2020/12/02 04:01:39;;;;;;;0.47;0.47;;;15.90;79.50;;;;;;4231860;28;20108;-42
2020/12/02 04:04:00;;;;;;;0.20;0.20;;;15.90;79.20;;;;;;4231263;28;20061;-41
2020/12/02 04:06:22;;;;;;;0.00;0.00;;;15.90;79.20;;;;;;4231225;28;20494;-42
2020/12/02 04:08:43;;;;;;;0.22;0.22;;;15.90;79.20;;;;;;4231576;28;20581;-42
2020/12/02 04:11:04;;;;;;;;;;;15.90;79.20;;;;;;4231454;28;20459;-44
2020/12/02 04:13:26;;;;;;;0.68;0.68;;;15.90;79.10;;;;;;4231144;28;20376;-41
2020/12/02 04:15:47;;;;;;;0.55;0.55;;;15.90;79.10;;;;;;4230971;28;20052;-40
2020/12/02 04:18:08;;;;;;;0.50;0.50;;;15.80;79.30;;;;;;4231067;28;20085;-40
2020/12/02 04:20:29;;;;;;;0.55;0.55;;;15.80;79.50;;;;;;4214211;28;20048;-41
2020/12/02 04:22:53;;;;;;;0.75;0.75;;;15.80;79.50;;;;;;4214694;28;20048;-41
2020/12/02 04:25:14;;;;;;;0.08;0.08;;;15.90;79.30;;;;;;4214561;28;20055;-40
2020/12/02 04:27:35;;;;;;;0.90;0.90;;;15.90;79.00;;;;;;4214072;28;20131;-40
2020/12/02 04:29:56;;;;;;;0.73;0.73;;;15.90;78.90;;;;;;4227876;28;20135;-40
2020/12/02 04:32:17;;;;;;;0.47;0.47;;;15.80;79.00;;;;;;4231126;28;20052;-41
2020/12/02 04:34:38;;;;;;;0.00;0.00;;;15.80;79.20;;;;;;4231139;28;20051;-40
2020/12/02 04:36:59;;;;;;;1.02;1.02;;;15.80;79.50;;;;;;4231319;28;20505;-40
2020/12/02 04:39:21;;;;;;;0.98;0.98;;;15.80;79.60;;;;;;4231404;28;20134;-40
2020/12/02 04:41:42;;;;;;;0.40;0.38;;;15.80;79.60;;;;;;4231002;28;20051;-40
2020/12/02 04:44:03;;;;;;;0.85;0.85;;;16.00;79.00;;;;;;4231218;28;20052;-40
2020/12/02 04:46:28;;;;;;;0.60;0.60;;;16.10;78.10;;;;;;4231213;28;20525;-40
2020/12/02 04:48:52;;;;;;;1.88;1.75;;;16.20;77.60;;;;;;4230515;28;20142;-40
2020/12/02 04:51:16;;;;;;;0.63;0.63;;;16.30;77.30;;;;;;4230480;28;20058;-40
2020/12/02 04:53:39;;;;;;;0.47;0.47;;;16.30;77.30;;;;;;4230684;28;20130;-40
2020/12/02 04:56:01;;;;;;;0.00;0.00;;;16.20;77.30;;;;;;4230947;28;20097;-40
2020/12/02 04:58:30;;;;;;;6.50;1.75;;;16.20;77.40;;;;;;4230704;28;20056;-39
2020/12/02 05:00:51;;;;;;;0.80;0.80;;;16.30;77.30;;;;;;4230358;28;20062;-40
2020/12/02 05:03:13;;;;;;;;;;;16.30;77.20;;;;;;4230582;28;20569;-40
2020/12/02 05:05:35;;;;;;;0.28;0.28;;;16.20;77.20;;;;;;4230226;28;19924;-41
2020/12/02 05:07:55;;;;;;;0.55;0.45;;;16.20;77.30;;;;;;4229790;28;20056;-41
2020/12/02 05:10:18;;;;;;;0.52;0.52;;;16.10;77.70;;;;;;4230718;28;20112;-41
2020/12/02 05:12:43;;;;;;;0.00;0.00;;;16.00;77.90;;;;;;4230510;28;20055;-40
2020/12/02 05:15:15;;;;;;;0.88;0.88;;;16.00;78.40;;;;;;4230366;28;20051;-40
2020/12/02 05:17:36;;;;;;;1.05;0.93;;;15.90;78.60;;;;;;4213564;28;20519;-41
2020/12/02 05:20:09;;;;;;;1.58;1.35;;;15.80;78.80;;;;;;4229632;28;20043;-41
2020/12/02 05:22:34;;;;;;;0.35;0.22;;;15.70;79.00;;;;;;4230123;28;20604;-42
2020/12/02 05:24:55;;;;;;;0.25;0.25;;;15.70;79.60;;;;;;4230470;28;20047;-40
2020/12/02 05:27:19;;;;;;;4.20;0.65;;;15.70;80.10;;;;;;4230425;28;20048;-41
2020/12/02 05:29:53;;;;;;;0.63;0.15;;;15.70;79.70;;;;;;4229858;28;20789;-40
2020/12/02 05:32:19;;;;;;;0.30;0.30;;;15.80;79.20;;;;;;4229957;28;20068;-40
2020/12/02 05:34:40;;;;;;;0.28;0.28;;;16.00;78.60;;;;;;4230041;28;20074;-40
2020/12/02 05:37:08;;;;;;;0.47;0.47;;;16.00;78.00;;;;;;4230347;28;20048;-40
2020/12/02 05:39:47;;;;;;;0.43;0.43;;;16.00;77.90;;;;;;4230235;28;20051;-40
2020/12/02 05:42:21;;;;;;;0.85;0.85;;;15.90;77.90;;;;;;4229420;28;20467;-39
2020/12/02 05:44:43;;;;;;;0.90;0.90;;;15.90;78.30;;;;;;4214136;28;20093;-40
2020/12/02 05:47:10;;;;;;;0.13;0.13;;;15.90;78.80;;;;;;4229743;28;20706;-40
2020/12/02 05:49:41;;;;;;;1.30;1.20;;;16.00;78.30;;;;;;4229370;28;20047;-41
2020/12/02 05:52:03;;;;;;;0.77;0.60;;;16.10;77.80;;;;;;4229580;28;20051;-40
2020/12/02 05:54:25;;;;;;;0.00;0.00;;;16.10;77.70;;;;;;4230029;28;20554;-40
2020/12/02 05:56:46;;;;;;;0.00;0.00;;;16.00;77.80;;;;;;4229776;28;20692;-40
2020/12/02 05:59:07;;;;;;;0.55;0.55;;;16.00;77.90;;;;;;4229558;28;20052;-39
2020/12/02 06:01:30;;;;;;;0.63;0.63;;;15.90;78.20;;;;;;4229591;28;20071;-40
2020/12/02 06:03:55;;;;;;;1.05;1.05;;;15.90;78.40;;;;;;4229132;28;20047;-40
2020/12/02 06:06:16;;;;;;;6.43;0.60;;;16.00;78.50;;;;;;4229800;28;20055;-40
2020/12/02 06:08:39;;;;;;;1.13;1.13;;;16.00;78.30;;;;;;4229866;28;20043;-40
2020/12/02 06:11:26;;;;;;;0.88;0.88;;;16.10;78.20;;;;;;4229263;28;20560;-41
2020/12/02 06:13:49;;;;;;;0.32;0.32;;;16.10;78.30;;;;;;4229052;28;20135;-39
2020/12/02 06:16:11;;;;;;;2.47;1.48;;;16.10;78.40;;;;;;4228365;28;20146;-40
2020/12/02 06:18:35;;;;;;;0.80;0.80;;;16.00;78.40;;;;;;4229336;28;20060;-40
2020/12/02 06:20:57;;;;;;;1.02;1.02;;;16.00;78.50;;;;;;4229719;28;20075;-39
2020/12/02 06:23:18;;;;;;;0.10;0.10;;;16.10;78.50;;;;;;4229779;28;20075;-40
2020/12/02 06:25:48;;;;;;;0.10;0.10;;;16.20;77.80;;;;;;4229519;28;20130;-40
2020/12/02 06:28:10;;;;;;;0.22;0.22;;;16.30;77.50;;;;;;4228916;28;20051;-40
2020/12/02 06:30:31;;;;;;;1.73;1.65;;;16.30;76.80;;;;;;4228637;28;20095;-39
2020/12/02 06:33:22;;;;;;;0.73;0.68;;;16.30;76.90;;;;;;4213971;28;20055;-40
2020/12/02 06:35:48;;;;;;;2.80;2.63;;;16.20;77.00;;;;;;4212573;28;20056;-39
2020/12/02 06:38:24;;;;;;;1.25;1.20;;;16.10;77.50;;;;;;4213476;28;20055;-39
2020/12/02 06:41:21;;;;;;;0.65;0.65;;;16.10;78.00;;;;;;4229523;28;20056;-40
2020/12/02 06:43:51;;;;;;;0.75;0.75;;;16.00;78.40;;;;;;4169616;28;20058;-39
2020/12/02 06:46:14;;;;;;;8.43;2.33;;;15.90;78.80;;;;;;4207080;28;20052;-39
2020/12/02 06:48:37;;;;;;;2.63;2.47;;;15.80;79.20;;;;;;4220054;28;20079;-39
2020/12/02 06:51:00;;;;;;;1.27;1.17;;;15.70;80.70;;;;;;4213353;28;20052;-41
2020/12/02 06:53:22;;;;;;;0.85;0.30;;;15.80;80.00;;;;;;4228734;28;20130;-40
2020/12/02 06:55:45;;;;;;;2.50;1.40;;;15.70;80.50;;;;;;4229236;28;20482;-39
2020/12/02 06:58:12;;;;;;;0.30;0.30;;;15.70;80.80;;;;;;4228541;28;20055;-40
2020/12/02 07:00:41;;;;;;;0.20;0.20;;;15.70;81.10;;;;;;4228760;28;20466;-42
2020/12/02 07:03:23;;;;;;;0.52;0.52;;;15.80;81.60;;;;;;4228401;28;20078;-40
2020/12/02 07:05:48;;;;;;;0.77;0.75;;;15.80;81.80;;;;;;4229227;28;20101;-40
2020/12/02 07:08:16;;;;;;;1.75;1.08;;;15.90;81.40;;;;;;4227404;28;20490;-42
2020/12/02 07:10:37;;;;;;;4.45;1.38;;;16.10;80.70;;;;;;4228279;28;20452;-40
2020/12/02 07:12:59;;;;;;;3.50;0.95;;;16.20;80.00;;;;;;4228295;28;20058;-42
2020/12/02 07:15:20;;;;;;;3.35;3.15;;;16.20;78.90;;;;;;4211746;28;20509;-39
2020/12/02 07:17:42;;;;;;;0.63;0.63;;;16.20;78.90;;;;;;4227006;28;20056;-41
2020/12/02 07:20:05;;;;;;;2.40;0.80;;;16.20;79.10;;;;;;4228578;28;20055;-39
2020/12/02 07:22:31;;;;;;;0.10;0.10;;;16.10;79.30;;;;;;4228016;28;20055;-42
2020/12/02 07:24:58;;;;;;;1.05;1.05;;;16.00;79.60;;;;;;4228632;28;20549;-42
2020/12/02 07:27:22;;;;;;;1.42;1.33;;;15.90;80.20;;;;;;4229648;28;20051;-42
2020/12/02 07:29:43;;;;;;;0.00;0.00;;;15.90;80.30;;;;;;4230510;28;20058;-42
2020/12/02 07:32:05;;;;;;;0.32;0.32;;;15.80;80.70;;;;;;4231602;28;20059;-42
2020/12/02 07:34:27;;;;;;;2.13;1.98;;;15.70;81.20;;;;;;4231184;28;20052;-39
2020/12/02 07:36:49;;;;;;;0.47;0.47;;;15.60;81.70;;;;;;4231242;28;20598;-42
2020/12/02 07:39:14;;;;;;;5.38;2.80;;;15.50;81.90;;;;;;4215063;28;20056;-41
2020/12/02 07:41:44;;;;;;;0.88;0.88;;;15.50;82.40;;;;;;4214896;28;20055;-41
2020/12/02 07:44:05;;;;;;;0.93;0.93;;;15.40;82.70;;;;;;4228385;28;20075;-41
2020/12/02 07:46:26;;;;;;;0.32;0.32;;;15.40;82.80;;;;;;4231447;28;20051;-40
2020/12/02 07:48:51;;;;;;;0.75;0.75;;;15.30;83.00;;;;;;4231721;28;20058;-41
2020/12/02 07:51:17;;;;;;;0.13;0.13;;;15.40;83.30;;;;;;4231167;28;20067;-41
2020/12/02 07:53:44;;;;;;;1.17;1.10;;;15.40;83.20;;;;;;4231066;28;20413;-41
2020/12/02 07:56:12;;;;;;;0.10;0.10;;;15.40;83.40;;;;;;4231008;28;20051;-41
2020/12/02 07:58:40;;;;;;;5.82;1.65;;;15.50;83.10;;;;;;4230939;28;20096;-42
2020/12/02 08:01:16;;;;;;;0.10;0.10;;;15.60;82.50;;;;;;4231466;28;20135;-41
2020/12/02 08:03:40;;;;;;;0.00;0.00;;;15.70;82.00;;;;;;4231544;28;20058;-41
2020/12/02 08:06:13;;;;;;;0.30;0.30;;;15.80;81.70;;;;;;4231244;28;20165;-41
2020/12/02 08:08:34;;;;;;;1.55;1.45;;;15.70;81.70;;;;;;4231182;28;20058;-41
2020/12/02 08:11:08;;;;;;;1.05;1.05;;;15.80;81.60;;;;;;4230729;28;20055;-40
2020/12/02 08:13:29;;;;;;;1.05;1.05;;;15.80;81.10;;;;;;4231187;28;20067;-41
2020/12/02 08:15:54;;;;;;;0.30;0.30;;;16.00;80.60;;;;;;4231578;28;20546;-40
2020/12/02 08:18:20;;;;;;;2.10;2.00;;;16.00;80.40;;;;;;4227548;28;20048;-41
2020/12/02 08:20:43;;;;;;;1.85;1.20;;;16.00;80.30;;;;;;4216420;28;20131;-41
2020/12/02 08:23:09;;;;;;;3.75;1.17;;;16.00;80.40;;;;;;4221234;28;20051;-41
2020/12/02 08:25:34;;;;;;;0.98;0.32;;;15.90;80.70;;;;;;4228457;28;20048;-40
2020/12/02 08:27:59;;;;;;;2.38;2.17;;;15.90;80.80;;;;;;4214772;28;20059;-41
2020/12/02 08:30:22;;;;;;;1.50;1.50;;;15.90;81.10;;;;;;4230807;28;20452;-41
2020/12/02 08:32:48;;;;;;;0.77;0.60;;;15.90;81.10;;;;;;4230030;28;20056;-40
2020/12/02 08:35:24;;;;;;;4.75;2.45;;;16.00;80.80;;;;;;4230324;28;20059;-41
2020/12/02 08:37:52;;;;;;;1.85;1.63;;;16.00;80.70;;;;;;4226735;28;20058;-42
2020/12/02 08:40:29;;;;;;;0.77;0.77;;;16.00;80.70;;;;;;4227570;28;20108;-41
2020/12/02 08:42:53;;;;;;;0.52;0.52;;;16.00;80.80;;;;;;4229661;28;20138;-40
2020/12/02 08:45:19;;;;;;;5.18;3.10;;;15.90;81.00;;;;;;4229768;28;20126;-39
2020/12/02 08:47:41;;;;;;;0.43;0.43;;;15.90;81.30;;;;;;4229903;28;20051;-40
2020/12/02 08:50:03;;;;;;;0.20;0.20;;;15.80;81.60;;;;;;4229947;28;20058;-40
2020/12/02 08:52:24;;;;;;;1.73;1.67;;;15.70;81.80;;;;;;4229414;28;20055;-40
2020/12/02 08:54:45;;;;;;;;;;;15.70;82.10;;;;;;4219656;28;20075;-38
2020/12/02 08:57:08;;;;;;;0.73;0.73;;;15.60;82.30;;;;;;4229965;28;19928;-40
2020/12/02 08:59:29;;;;;;;1.85;1.10;;;15.60;82.60;;;;;;4228919;28;20293;-40
2020/12/02 09:01:51;;;;;;;0.52;0.52;;;15.70;82.30;;;;;;4229951;28;20052;-40
2020/12/02 09:04:12;;;;;;;4.07;0.90;;;15.90;81.60;;;;;;4229013;28;20051;-40
2020/12/02 09:06:33;;;;;;;1.05;1.05;;;16.00;80.90;;;;;;4228679;28;20399;-39
2020/12/02 09:08:55;;;;;;;2.90;2.20;;;16.00;80.80;;;;;;4228488;28;20066;-40
2020/12/02 09:11:20;;;;;;;1.05;1.05;;;16.00;80.50;;;;;;4230037;28;20539;-40
2020/12/02 09:13:42;;;;;;;0.40;0.20;;;16.00;80.50;;;;;;4229292;28;20077;-40
2020/12/02 09:16:03;;;;;;;0.40;0.40;;;15.90;80.60;;;;;;4228934;28;20051;-40
2020/12/02 09:18:25;;;;;;;0.28;0.28;;;15.90;81.00;;;;;;4228960;28;20058;-39
2020/12/02 09:20:46;;;;;;;0.25;0.25;;;15.80;81.00;;;;;;4226202;28;20051;-39
2020/12/02 09:23:09;;;;;;;1.35;1.33;;;15.80;81.30;;;;;;4225670;28;20048;-40
2020/12/02 09:25:31;;;;;;;1.00;1.00;;;15.70;81.60;;;;;;4229864;27;20132;-39
2020/12/02 09:27:52;;;;;;;10.93;2.00;;;15.70;82.00;;;;;;4228899;28;20090;-40
2020/12/02 09:30:13;;;;;;;0.80;0.80;;;15.70;82.40;;;;;;4226455;28;20058;-39
2020/12/02 09:32:37;;;;;;;0.60;0.60;;;15.70;82.00;;;;;;4228772;28;20463;-40
2020/12/02 09:34:58;;;;;;;;;;;15.80;81.90;;;;;;4229412;28;20413;-40
2020/12/02 09:37:19;;;;;;;0.40;0.40;;;15.80;81.60;;;;;;4228686;28;19920;-40
2020/12/02 09:39:40;;;;;;;0.22;0.22;;;15.80;81.60;;;;;;4226496;28;20043;-40
2020/12/02 09:42:23;;;;;;;4.07;2.40;;;15.90;81.30;;;;;;4224651;28;20055;-40
2020/12/02 09:44:51;;;;;;;1.92;1.38;;;16.00;80.80;;;;;;4211347;28;20047;-40
2020/12/02 09:47:14;;;;;;;0.22;0.22;;;16.20;81.10;;;;;;4226588;28;20051;-41
2020/12/02 09:49:36;;;;;;;0.98;0.98;;;16.20;79.70;;;;;;4225567;28;20054;-40
2020/12/02 09:52:26;;;;;;;1.65;1.65;;;16.20;79.60;;;;;;4228064;28;20044;-40
2020/12/02 09:54:48;;;;;;;1.80;1.67;;;16.20;79.60;;;;;;4227438;28;20104;-39
2020/12/02 09:57:14;;;;;;;1.08;1.02;;;16.10;79.80;;;;;;4225938;28;20059;-40
2020/12/02 09:59:39;;;;;;;2.30;1.73;;;16.00;80.20;;;;;;4228316;28;20519;-39
2020/12/02 10:02:10;;;;;;;0.38;0.38;;;16.00;81.40;;;;;;4225486;28;20060;-40
2020/12/02 10:04:43;;;;;;;0.10;0.10;;;15.90;80.80;;;;;;4223864;28;20054;-39
2020/12/02 10:07:27;;;;;;;4.28;3.03;;;15.90;81.20;;;;;;4227315;28;20058;-40
2020/12/02 10:10:25;;;;;;;0.68;0.68;;;15.90;81.00;;;;;;4226939;28;20040;-40
2020/12/02 10:13:12;;;;;;;13.05;3.10;;;16.00;80.80;;;;;;4226729;28;20096;-40
2020/12/02 10:15:44;;;;;;;0.43;0.43;;;15.90;80.70;;;;;;4224702;28;20075;-40
2020/12/02 10:18:26;;;;;;;1.02;1.02;;;15.90;80.80;;;;;;4225007;28;20425;-40
2020/12/02 10:20:49;;;;;;;0.03;0.03;;;15.80;81.20;;;;;;4226946;28;20082;-40
2020/12/02 10:23:41;;;;;;;0.30;0.30;;;15.80;81.50;;;;;;4228390;28;20059;-40
2020/12/02 10:26:38;;;;;;;1.02;1.02;;;15.80;81.90;;;;;;4225041;28;20051;-39
2020/12/02 10:29:06;;;;;;;5.32;2.05;;;15.80;81.60;;;;;;4224162;28;20043;-39
2020/12/02 10:31:39;;;;;;;0.20;0.20;;;15.90;81.00;;;;;;4227464;28;20050;-40
2020/12/02 10:34:05;;;;;;;1.00;1.00;;;15.90;81.00;;;;;;4224266;28;20760;-40
2020/12/02 10:36:29;;;;;;;0.65;0.65;;;15.90;80.90;;;;;;4228589;28;20077;-39
2020/12/02 10:38:56;;;;;;;0.85;0.85;;;15.90;81.10;;;;;;4227219;28;20048;-39
2020/12/02 10:41:32;;;;;;;0.10;0.10;;;15.90;81.20;;;;;;4227072;28;20062;-40
2020/12/02 10:44:18;;;;;;;1.80;1.80;;;15.90;80.80;;;;;;4226630;28;20044;-40
2020/12/02 10:46:52;;;;;;;0.10;0.10;;;15.90;80.70;;;;;;4225263;28;20059;-40
2020/12/02 10:49:25;;;;;;;0.32;0.32;;;15.90;80.50;;;;;;4225853;28;20056;-40
2020/12/02 10:51:50;;;;;;;1.27;1.27;;;15.90;80.70;;;;;;4225922;28;20051;-40
2020/12/02 10:54:14;;;;;;;0.00;0.00;;;15.90;80.70;;;;;;4228109;28;20058;-40
2020/12/02 10:56:35;;;;;;;0.22;0.22;;;15.80;80.70;;;;;;4227509;28;20502;-39
2020/12/02 10:58:57;;;;;;;1.00;1.00;;;15.80;81.20;;;;;;4227343;28;20048;-39
2020/12/02 11:01:21;;;;;;;1.70;1.63;;;15.80;81.40;;;;;;4226546;28;20069;-39
2020/12/02 11:03:42;;;;;;;2.30;1.65;;;15.80;81.10;;;;;;4229126;28;20044;-40
2020/12/02 11:06:15;;;;;;;0.32;0.32;;;15.90;80.80;;;;;;4227703;28;20079;-40
2020/12/02 11:08:51;;;;;;;1.33;0.75;;;15.90;80.90;;;;;;4231045;28;20496;-40
2020/12/02 11:11:29;;;;;;;0.88;0.88;;;15.80;80.80;;;;;;4228601;28;20052;-39
2020/12/02 11:14:01;;;;;;;0.80;0.80;;;15.90;80.80;;;;;;4231190;28;20484;-40
2020/12/02 11:16:30;;;;;;;20.58;3.92;;;15.90;80.70;;;;;;4230507;28;20044;-40
2020/12/02 11:19:33;;;;;;;0.20;0.20;;;16.00;80.30;;;;;;4214832;28;20048;-39
2020/12/02 11:22:05;;;;;;;0.65;0.65;;;16.10;80.00;;;;;;4230466;28;20047;-39
2020/12/02 11:24:49;;;;;;;4.28;0.73;;;16.20;79.70;;;;;;4230609;28;20044;-40
2020/12/02 11:27:11;;;;;;;0.20;0.20;;;16.30;78.80;;;;;;4231075;28;20052;-40
2020/12/02 11:29:32;;;;;;;0.50;0.50;;;16.40;78.30;;;;;;4226795;28;20047;-39
2020/12/02 11:32:09;;;;;;;;;;;16.40;78.10;;;;;;4231121;28;20395;-39
2020/12/02 11:34:43;;;;;;;0.63;0.63;;;16.40;78.40;;;;;;4226949;28;19923;-40
2020/12/02 11:37:07;;;;;;;0.13;0.13;;;16.30;78.80;;;;;;4231085;28;20055;-40
2020/12/02 11:39:46;;;;;;;0.13;0.13;;;16.20;78.90;;;;;;4230547;28;20060;-39
2020/12/02 11:42:18;;;;;;;1.75;1.75;;;16.20;79.50;;;;;;4230813;28;20052;-40
2020/12/02 11:44:45;;;;;;;2.58;2.47;;;16.20;79.50;;;;;;4215525;28;20052;-40
2020/12/02 11:47:15;;;;;;;1.98;1.95;;;16.30;79.30;;;;;;4227581;28;20130;-40
2020/12/02 11:49:42;;;;;;;0.82;0.82;;;16.30;79.00;;;;;;4227532;28;20428;-40
2020/12/02 11:52:15;;;;;;;5.88;1.27;;;16.30;80.00;;;;;;4226824;28;20086;-40
2020/12/02 11:54:36;;;;;;;2.22;1.00;;;16.30;79.20;;;;;;4226747;28;20138;-40
2020/12/02 11:56:58;;;;;;;3.08;2.00;;;16.20;79.30;;;;;;4215409;28;20052;-40
2020/12/02 11:59:22;;;;;;;1.55;1.45;;;16.20;79.60;;;;;;4229519;28;20509;-40
2020/12/02 12:01:50;;;;;;;0.40;0.40;;;16.10;80.70;;;;;;4228437;28;20047;-39
2020/12/02 12:04:25;;;;;;;1.50;1.02;;;16.20;79.70;;;;;;4230916;27;20062;-40
2020/12/02 12:06:50;;;;;;;1.65;1.13;;;16.20;79.70;;;;;;4228583;28;20406;-40
2020/12/02 12:09:16;;;;;;;15.98;2.40;;;16.20;79.50;;;;;;4230044;28;20055;-39
2020/12/02 12:11:40;;;;;;;0.45;0.45;;;16.10;79.50;;;;;;4230392;28;20107;-40
2020/12/02 12:14:09;;;;;;;4.72;2.35;;;16.10;79.90;;;;;;4223260;28;20052;-40
2020/12/02 12:16:40;;;;;;;1.13;1.13;;;16.00;80.20;;;;;;4230472;28;20413;-40
2020/12/02 12:19:08;;;;;;;2.00;1.65;;;16.10;80.30;;;;;;4220535;28;20101;-41
2020/12/02 12:21:35;;;;;;;5.05;1.95;;;16.20;79.70;;;;;;4231061;28;20460;-41
2020/12/02 12:24:02;;;;;;;0.50;0.50;;;16.40;79.00;;;;;;4231108;28;20413;-40
2020/12/02 12:26:26;;;;;;;3.15;2.13;;;16.40;78.60;;;;;;4230617;28;20067;-41
2020/12/02 12:28:48;;;;;;;3.97;1.98;;;16.40;78.80;;;;;;4229071;28;20497;-40
2020/12/02 12:31:11;;;;;;;;;;;16.30;78.90;;;;;;4227929;28;20515;-40
2020/12/02 12:33:40;;;;;;;1.35;1.27;;;16.30;79.20;;;;;;4226195;28;20001;-39
2020/12/02 12:36:08;;;;;;;0.00;0.00;;;16.20;79.40;;;;;;4230108;28;20104;-39
2020/12/02 12:38:35;;;;;;;1.27;1.27;;;16.10;79.70;;;;;;4228642;28;20079;-39
2020/12/02 12:41:01;;;;;;;1.75;0.95;;;16.10;80.00;;;;;;4229177;28;20052;-40
2020/12/02 12:43:26;;;;;;;0.63;0.63;;;16.10;79.80;;;;;;4228344;28;20051;-39